Time;durP1;ratioP1;P1;durP2;ratioP2;P2;SDS_P1;SDS_P2;PMS_P1;PMS_P2;Temp;Humidity;BMP_temperature;BMP_pressure;BME280_temperature;BME280_humidity;BME280_pressure;Samples;Min_cycle;Max_cycle;Signal;HPM_P1;HPM_P2
2022/05/31 00:00:36;;;;;;;2.60;1.13;;;15.40;75.20;;;;;;4952985;28;95663;-61
2022/05/31 00:03:13;;;;;;;2.50;1.10;;;15.40;75.10;;;;;;4959660;28;96609;-61
2022/05/31 00:05:45;;;;;;;1.38;0.80;;;15.50;75.10;;;;;;4966724;28;96782;-61
2022/05/31 00:08:16;;;;;;;2.55;0.90;;;15.60;75.10;;;;;;4961148;28;96038;-61
2022/05/31 00:10:46;;;;;;;2.53;1.10;;;15.60;74.90;;;;;;4964763;28;98507;-61
2022/05/31 00:13:20;;;;;;;4.50;1.05;;;15.70;74.90;;;;;;4956136;28;95753;-60
2022/05/31 00:15:51;;;;;;;2.38;1.17;;;15.70;74.80;;;;;;4953183;28;95948;-59
2022/05/31 00:18:23;;;;;;;3.17;0.98;;;15.80;74.90;;;;;;4960111;28;95621;-59
2022/05/31 00:20:54;;;;;;;2.20;0.77;;;15.80;74.70;;;;;;4961884;28;95328;-59
2022/05/31 00:23:24;;;;;;;2.00;1.10;;;15.90;74.70;;;;;;4958892;28;95712;-58
2022/05/31 00:25:55;;;;;;;1.10;0.95;;;15.90;74.60;;;;;;4953504;28;96441;-55
2022/05/31 00:28:26;;;;;;;1.40;0.90;;;16.00;74.60;;;;;;4956786;28;95785;-57
2022/05/31 00:30:57;;;;;;;1.75;1.00;;;16.00;74.60;;;;;;4955078;28;95860;-57
2022/05/31 00:33:30;;;;;;;2.17;1.20;;;16.10;74.70;;;;;;4959901;28;95767;-58
2022/05/31 00:36:01;;;;;;;1.98;1.30;;;16.10;74.80;;;;;;4955482;28;98250;-54
2022/05/31 00:38:32;;;;;;;2.95;1.45;;;16.20;74.90;;;;;;4962637;28;96670;-55
2022/05/31 00:41:24;;;;;;;2.08;1.00;;;16.20;74.90;;;;;;4942165;28;95795;-54
2022/05/31 00:44:07;;;;;;;1.33;1.17;;;16.20;74.90;;;;;;4961916;28;95389;-55
2022/05/31 00:46:47;;;;;;;2.17;1.02;;;16.20;74.90;;;;;;4956864;28;96271;-54
2022/05/31 00:49:46;;;;;;;3.17;1.90;;;16.20;74.80;;;;;;4968206;28;95467;-56
2022/05/31 00:52:24;;;;;;;3.17;1.52;;;16.20;74.80;;;;;;4949692;28;95819;-55
2022/05/31 00:55:34;;;;;;;2.53;1.75;;;16.20;74.70;;;;;;4968032;28;96397;-54
2022/05/31 00:58:21;;;;;;;2.05;1.35;;;16.20;75.00;;;;;;4948087;28;97942;-56
2022/05/31 01:00:52;;;;;;;1.38;1.27;;;16.20;75.00;;;;;;4960715;28;95689;-57
2022/05/31 01:03:25;;;;;;;2.58;1.52;;;16.20;75.00;;;;;;4968532;28;95206;-58
2022/05/31 01:05:55;;;;;;;4.97;1.25;;;16.20;75.10;;;;;;4960258;28;96136;-57
2022/05/31 01:08:26;;;;;;;3.72;1.42;;;16.20;75.30;;;;;;4964838;28;96203;-58
2022/05/31 01:11:29;;;;;;;4.93;1.65;;;16.20;75.40;;;;;;4970113;28;95707;-59
2022/05/31 01:14:35;;;;;;;2.63;1.27;;;16.20;75.30;;;;;;4966311;28;95699;-58
2022/05/31 01:17:36;;;;;;;1.10;1.00;;;16.20;75.30;;;;;;4968829;28;95645;-57
2022/05/31 01:20:27;;;;;;;3.30;1.70;;;16.20;75.20;;;;;;4953394;28;95740;-59
2022/05/31 01:23:24;;;;;;;2.05;1.67;;;16.20;75.20;;;;;;4966350;28;96637;-58
2022/05/31 01:26:14;;;;;;;1.95;1.10;;;16.10;75.00;;;;;;4950749;28;95776;-56
2022/05/31 01:29:07;;;;;;;2.25;1.80;;;16.10;75.00;;;;;;4963038;28;95940;-58
2022/05/31 01:31:52;;;;;;;1.73;1.48;;;16.10;74.90;;;;;;4962777;28;95906;-56
2022/05/31 01:34:48;;;;;;;2.38;1.67;;;16.10;74.80;;;;;;4951872;28;96220;-58
2022/05/31 01:37:22;;;;;;;1.67;1.30;;;16.10;74.80;;;;;;4966967;28;95567;-56
2022/05/31 01:39:58;;;;;;;3.75;1.90;;;16.10;74.60;;;;;;4953011;28;95835;-57
2022/05/31 01:42:40;;;;;;;2.60;1.50;;;16.10;74.70;;;;;;4966407;28;97037;-57
2022/05/31 01:45:29;;;;;;;2.28;1.30;;;16.10;74.60;;;;;;4947669;28;97640;-59
2022/05/31 01:48:05;;;;;;;1.63;1.10;;;16.20;74.50;;;;;;4952382;28;95817;-58
2022/05/31 01:50:37;;;;;;;2.25;1.20;;;16.20;74.50;;;;;;4969601;28;95693;-58
2022/05/31 01:53:10;;;;;;;2.33;1.30;;;16.30;74.40;;;;;;4964258;28;98373;-56
2022/05/31 01:55:43;;;;;;;1.17;1.08;;;16.30;74.30;;;;;;4960730;28;95763;-57
2022/05/31 01:58:19;;;;;;;2.40;1.00;;;16.30;74.30;;;;;;4951173;28;95831;-56
2022/05/31 02:00:51;;;;;;;2.08;1.35;;;16.40;74.30;;;;;;4953106;28;95458;-55
2022/05/31 02:03:24;;;;;;;2.08;1.20;;;16.50;74.50;;;;;;4958973;28;96677;-58
2022/05/31 02:05:55;;;;;;;1.30;1.10;;;16.50;74.50;;;;;;4960350;28;97319;-57
2022/05/31 02:08:33;;;;;;;1.30;0.80;;;16.60;74.50;;;;;;4964033;28;96513;-57
2022/05/31 02:11:04;;;;;;;2.67;1.48;;;16.60;74.50;;;;;;4966168;28;95495;-56
2022/05/31 02:13:36;;;;;;;1.48;1.20;;;16.60;74.50;;;;;;4949072;28;98445;-57
2022/05/31 02:16:14;;;;;;;2.33;1.42;;;16.60;74.50;;;;;;4951383;28;95750;-57
2022/05/31 02:21:47;;;;;;;1.50;1.30;;;16.60;74.40;;;;;;4958762;28;95815;-57
2022/05/31 02:24:18;;;;;;;1.42;1.17;;;16.60;74.40;;;;;;4950232;28;96036;-59
2022/05/31 02:26:51;;;;;;;2.58;1.50;;;16.60;74.30;;;;;;4949175;28;95742;-57
2022/05/31 02:29:25;;;;;;;1.63;1.52;;;16.60;74.20;;;;;;4940450;28;95879;-58
2022/05/31 02:31:59;;;;;;;1.70;1.05;;;16.60;74.20;;;;;;4945205;28;95815;-54
2022/05/31 02:34:32;;;;;;;2.92;1.80;;;16.50;74.10;;;;;;4959334;28;96701;-58
2022/05/31 02:37:04;;;;;;;3.28;1.67;;;16.50;73.90;;;;;;4958378;28;96102;-56
2022/05/31 02:39:34;;;;;;;;;;;16.50;73.80;;;;;;4963990;28;95878;-57
2022/05/31 02:42:06;;;;;;;2.95;1.50;;;16.50;73.80;;;;;;4963961;28;95801;-56
2022/05/31 02:44:37;;;;;;;1.92;1.38;;;16.50;73.90;;;;;;4945749;28;98254;-57
2022/05/31 02:47:08;;;;;;;2.67;1.50;;;16.50;73.90;;;;;;4956892;28;97040;-58
2022/05/31 02:49:40;;;;;;;2.10;1.88;;;16.50;73.80;;;;;;4945661;28;95723;-59
2022/05/31 02:52:13;;;;;;;2.67;1.38;;;16.50;73.70;;;;;;4949746;28;95696;-56
2022/05/31 02:54:45;;;;;;;2.10;1.58;;;16.40;73.60;;;;;;4939665;28;98470;-58
2022/05/31 02:57:22;;;;;;;2.05;1.63;;;16.40;73.60;;;;;;4962158;28;95624;-57
2022/05/31 03:00:14;;;;;;;1.90;1.42;;;16.40;73.50;;;;;;4959518;28;95779;-56
2022/05/31 03:02:45;;;;;;;3.05;1.95;;;16.40;73.50;;;;;;4964316;28;95865;-56
2022/05/31 03:05:34;;;;;;;1.67;1.58;;;16.40;73.60;;;;;;4959562;28;95722;-58
2022/05/31 03:08:15;;;;;;;4.20;1.63;;;16.40;73.50;;;;;;4958819;28;95736;-57
2022/05/31 03:11:02;;;;;;;1.58;1.30;;;16.40;73.50;;;;;;4943693;28;95869;-59
2022/05/31 03:13:35;;;;;;;1.73;1.63;;;16.40;73.50;;;;;;4948999;28;95821;-60
2022/05/31 03:16:07;;;;;;;2.72;1.50;;;16.30;73.50;;;;;;4957270;28;96670;-60
2022/05/31 03:18:43;;;;;;;2.53;1.88;;;16.30;71.80;;;;;;4956518;28;95796;-60
2022/05/31 03:21:24;;;;;;;3.88;2.40;;;16.30;73.40;;;;;;4964642;28;96292;-60
2022/05/31 03:24:00;;;;;;;2.03;1.40;;;16.30;73.40;;;;;;4954893;28;96266;-60
2022/05/31 03:26:32;;;;;;;2.25;1.77;;;16.30;73.40;;;;;;4956477;28;97464;-60
2022/05/31 03:29:05;;;;;;;2.88;1.70;;;16.30;73.30;;;;;;4959503;28;97326;-59
2022/05/31 03:31:38;;;;;;;2.70;2.00;;;16.30;73.30;;;;;;4955715;28;95856;-59
2022/05/31 03:34:09;;;;;;;2.38;1.80;;;16.30;73.40;;;;;;4955103;28;96151;-59
2022/05/31 03:36:40;;;;;;;1.70;1.38;;;16.30;73.40;;;;;;4956005;28;96474;-59
2022/05/31 03:39:16;;;;;;;2.13;1.55;;;16.30;73.30;;;;;;4957733;28;96061;-59
2022/05/31 03:41:50;;;;;;;2.08;1.23;;;16.40;73.50;;;;;;4958430;28;95687;-59
2022/05/31 03:44:20;;;;;;;2.03;1.38;;;16.40;73.50;;;;;;4950860;28;95205;-60
2022/05/31 03:47:19;;;;;;;2.58;1.40;;;16.50;73.60;;;;;;4956742;28;96384;-59
2022/05/31 03:50:18;;;;;;;2.28;1.77;;;16.50;73.50;;;;;;4985570;28;95956;-59
2022/05/31 03:52:50;;;;;;;1.58;1.40;;;16.50;73.40;;;;;;4973596;28;96098;-59
2022/05/31 03:55:22;;;;;;;1.75;1.13;;;16.60;74.00;;;;;;4972323;28;96023;-58
2022/05/31 03:57:53;;;;;;;1.67;1.13;;;16.60;73.30;;;;;;4967106;28;98099;-58
2022/05/31 04:00:48;;;;;;;0.88;0.80;;;16.70;73.40;;;;;;4967347;28;95977;-57
2022/05/31 04:03:23;;;;;;;1.30;1.00;;;16.70;73.30;;;;;;4948149;28;96075;-52
2022/05/31 04:05:56;;;;;;;;;;;16.80;73.40;;;;;;4950386;28;96375;-55
2022/05/31 04:08:28;;;;;;;1.17;0.98;;;16.80;73.30;;;;;;4939184;28;99042;-56
2022/05/31 04:10:59;;;;;;;3.20;1.30;;;16.80;73.30;;;;;;4948928;28;98439;-52
2022/05/31 04:13:31;;;;;;;1.23;1.13;;;16.80;73.30;;;;;;4953654;28;95672;-59
2022/05/31 04:16:26;;;;;;;1.75;1.08;;;16.90;73.40;;;;;;4952909;28;95813;-57
2022/05/31 04:19:03;;;;;;;2.47;1.40;;;16.80;73.30;;;;;;4959496;28;96115;-58
2022/05/31 04:21:34;;;;;;;;;;;16.90;73.30;;;;;;4960058;28;97543;-63
2022/05/31 04:24:08;;;;;;;0.73;0.73;;;16.80;73.20;;;;;;4946669;28;96368;-60
2022/05/31 04:26:39;;;;;;;1.10;0.82;;;16.80;73.10;;;;;;4957755;28;95724;-59
2022/05/31 04:29:28;;;;;;;1.85;0.90;;;16.80;73.20;;;;;;4957089;28;96505;-60
2022/05/31 04:32:19;;;;;;;1.52;1.17;;;16.80;73.30;;;;;;4964964;28;95873;-61
2022/05/31 04:34:57;;;;;;;0.93;0.90;;;16.70;73.10;;;;;;4983707;28;95951;-61
2022/05/31 04:37:30;;;;;;;1.00;0.90;;;16.60;73.20;;;;;;4981568;28;96251;-61
2022/05/31 04:40:09;;;;;;;0.65;0.60;;;16.60;73.30;;;;;;4966256;28;96745;-61
2022/05/31 04:42:46;;;;;;;1.08;0.80;;;16.70;73.60;;;;;;4981902;28;96719;-61
2022/05/31 04:45:33;;;;;;;1.25;0.93;;;16.70;73.60;;;;;;4976939;28;98024;-61
2022/05/31 04:48:22;;;;;;;0.95;0.90;;;16.80;73.50;;;;;;4979478;28;95898;-61
2022/05/31 04:50:56;;;;;;;0.80;0.80;;;16.80;73.30;;;;;;4963859;28;96703;-61
2022/05/31 04:53:34;;;;;;;1.08;0.98;;;16.80;73.40;;;;;;4976070;28;95761;-61
2022/05/31 04:56:44;;;;;;;1.35;1.17;;;16.80;73.90;;;;;;4937961;28;95482;-62
2022/05/31 04:59:17;;;;;;;;;;;16.80;74.10;;;;;;4924912;28;95983;-59
2022/05/31 05:01:50;;;;;;;1.10;1.00;;;16.80;74.10;;;;;;4940506;28;98046;-59
2022/05/31 05:04:37;;;;;;;1.08;1.00;;;16.80;74.00;;;;;;4963607;28;95815;-59
2022/05/31 05:07:17;;;;;;;0.98;0.70;;;16.80;73.80;;;;;;4963330;28;95620;-59
2022/05/31 05:09:49;;;;;;;1.90;0.98;;;16.90;73.80;;;;;;4980799;28;95995;-59
2022/05/31 05:12:26;;;;;;;1.08;0.98;;;16.90;73.40;;;;;;4978707;28;96004;-53
2022/05/31 05:15:17;;;;;;;0.83;0.83;;;16.90;73.40;;;;;;4984480;28;95998;-66
2022/05/31 05:17:48;;;;;;;0.75;0.60;;;16.90;73.30;;;;;;4976370;28;96002;-65
2022/05/31 05:20:19;;;;;;;0.77;0.75;;;16.90;73.10;;;;;;4971920;28;96687;-65
2022/05/31 05:22:53;;;;;;;0.88;0.70;;;16.90;72.90;;;;;;4961913;28;95705;-65
2022/05/31 05:25:25;;;;;;;0.60;0.60;;;17.00;72.80;;;;;;4973088;28;97741;-65
2022/05/31 05:31:24;;;;;;;1.02;0.90;;;17.00;72.90;;;;;;4971613;28;96987;-61
2022/05/31 05:34:15;;;;;;;0.63;0.60;;;17.00;73.20;;;;;;4954888;28;96362;-61
2022/05/31 05:36:56;;;;;;;0.90;0.90;;;17.10;73.60;;;;;;4965378;28;96539;-57
2022/05/31 05:39:27;;;;;;;0.75;0.73;;;17.20;73.40;;;;;;4954728;28;95537;-63
2022/05/31 05:42:17;;;;;;;0.70;0.70;;;17.40;73.20;;;;;;4978116;28;95810;-63
2022/05/31 05:45:18;;;;;;;1.00;0.70;;;17.50;73.10;;;;;;4973132;28;96664;-60
2022/05/31 05:47:49;;;;;;;1.45;0.50;;;17.60;73.00;;;;;;4959395;28;97302;-56
2022/05/31 05:50:28;;;;;;;0.52;0.52;;;17.60;73.00;;;;;;4970828;28;95888;-61
2022/05/31 05:53:03;;;;;;;0.63;0.50;;;17.70;72.90;;;;;;4979026;28;95417;-62
2022/05/31 05:55:54;;;;;;;1.35;0.80;;;17.80;72.70;;;;;;4980723;28;97755;-64
2022/05/31 05:58:44;;;;;;;0.45;0.45;;;17.90;73.20;;;;;;4984105;28;95863;-60
2022/05/31 06:01:57;;;;;;;0.83;0.63;;;17.90;72.60;;;;;;4948474;28;96125;-62
2022/05/31 06:05:27;;;;;;;0.40;0.40;;;18.00;72.40;;;;;;4978868;28;95440;-61
2022/05/31 06:08:07;;;;;;;1.80;0.70;;;18.10;72.40;;;;;;4981732;28;98008;-57
2022/05/31 06:10:39;;;;;;;0.45;0.32;;;18.10;72.30;;;;;;4988752;28;96341;-51
2022/05/31 06:13:27;;;;;;;0.63;0.45;;;18.20;72.20;;;;;;4989309;28;95297;-54
2022/05/31 06:15:59;;;;;;;1.38;0.40;;;18.10;72.10;;;;;;4982420;28;95806;-63
2022/05/31 06:18:36;;;;;;;0.65;0.47;;;18.20;71.40;;;;;;4968766;28;96334;-64
2022/05/31 06:21:08;;;;;;;2.50;0.50;;;18.10;70.60;;;;;;4979838;28;100363;-65
2022/05/31 06:23:42;;;;;;;0.65;0.40;;;18.10;71.00;;;;;;4966913;28;95872;-49
2022/05/31 06:26:17;;;;;;;1.25;0.63;;;18.10;71.50;;;;;;4984656;28;95841;-54
2022/05/31 06:29:07;;;;;;;0.70;0.60;;;18.10;70.90;;;;;;4993505;28;96466;-54
2022/05/31 06:31:41;;;;;;;0.70;0.50;;;18.00;70.70;;;;;;4977597;28;95536;-55
2022/05/31 06:34:30;;;;;;;0.93;0.52;;;18.00;70.60;;;;;;4984508;28;95330;-55
2022/05/31 06:37:21;;;;;;;0.80;0.52;;;18.00;70.00;;;;;;4972774;28;95863;-55
2022/05/31 06:39:52;;;;;;;;;;;18.00;69.90;;;;;;4985354;28;97154;-57
2022/05/31 06:42:32;;;;;;;1.95;1.15;;;18.00;70.00;;;;;;4974780;28;96282;-59
2022/05/31 06:45:21;;;;;;;1.25;0.80;;;18.00;69.70;;;;;;4977726;28;97857;-62
2022/05/31 06:48:10;;;;;;;1.70;0.90;;;17.90;69.60;;;;;;4981133;28;95463;-62
2022/05/31 06:51:14;;;;;;;2.15;0.95;;;17.90;69.50;;;;;;4930445;28;95868;-58
2022/05/31 06:57:38;;;;;;;1.67;1.17;;;17.80;69.50;;;;;;4917690;28;95501;-58
2022/05/31 07:00:33;;;;;;;1.33;0.95;;;17.80;69.40;;;;;;4972155;28;98822;-59
2022/05/31 07:03:05;;;;;;;2.97;1.70;;;17.70;68.90;;;;;;4979423;28;98662;-59
2022/05/31 07:05:40;;;;;;;4.43;1.15;;;17.70;69.40;;;;;;4970037;28;96071;-56
2022/05/31 07:08:19;;;;;;;1.50;1.33;;;17.70;69.40;;;;;;4966426;28;96154;-58
2022/05/31 07:10:55;;;;;;;1.92;1.70;;;17.60;69.40;;;;;;4984305;28;95810;-56
2022/05/31 07:13:45;;;;;;;1.90;1.27;;;17.60;69.50;;;;;;4983139;28;98684;-57
2022/05/31 07:16:36;;;;;;;2.85;1.48;;;17.60;69.30;;;;;;4979011;28;97625;-59
2022/05/31 07:19:25;;;;;;;2.50;1.08;;;17.70;69.30;;;;;;4981156;28;95244;-58
2022/05/31 07:22:19;;;;;;;1.88;1.30;;;17.60;69.30;;;;;;4965119;28;96016;-56
2022/05/31 07:25:03;;;;;;;2.70;1.92;;;17.60;69.30;;;;;;4967728;28;98984;-58
2022/05/31 07:27:44;;;;;;;1.63;1.30;;;17.50;69.40;;;;;;4978035;28;98120;-58
2022/05/31 07:30:16;;;;;;;1.75;1.30;;;17.50;69.30;;;;;;4957545;28;96124;-53
2022/05/31 07:32:53;;;;;;;2.60;1.65;;;17.50;69.80;;;;;;4977144;28;95637;-55
2022/05/31 07:35:47;;;;;;;2.30;1.45;;;17.50;69.90;;;;;;4956055;28;98352;-55
2022/05/31 07:38:20;;;;;;;2.05;1.75;;;17.50;69.60;;;;;;4979511;28;95503;-52
2022/05/31 07:40:53;;;;;;;1.95;1.45;;;17.50;69.50;;;;;;4976738;28;96038;-51
2022/05/31 07:43:23;;;;;;;1.77;1.42;;;17.40;69.50;;;;;;4976742;28;96002;-54
2022/05/31 07:46:05;;;;;;;4.10;1.77;;;17.30;69.50;;;;;;4953569;28;96594;-53
2022/05/31 07:48:38;;;;;;;2.28;1.58;;;17.40;68.20;;;;;;4977709;28;97267;-54
2022/05/31 07:51:33;;;;;;;3.30;1.95;;;17.30;69.70;;;;;;4976400;28;96258;-54
2022/05/31 07:54:33;;;;;;;1.83;1.35;;;17.30;69.80;;;;;;4916172;28;95863;-54
2022/05/31 08:00:41;;;;;;;2.22;1.73;;;17.20;70.00;;;;;;4892158;28;95906;-54
2022/05/31 08:03:12;;;;;;;2.10;1.70;;;17.20;70.00;;;;;;4946088;28;96072;-53
2022/05/31 08:05:43;;;;;;;1.90;1.67;;;17.20;70.10;;;;;;4965563;28;95325;-55
2022/05/31 08:08:14;;;;;;;1.30;1.20;;;17.20;70.20;;;;;;4968666;28;95929;-55
2022/05/31 08:11:08;;;;;;;2.85;1.92;;;17.20;70.10;;;;;;4965434;28;95706;-56
2022/05/31 08:13:40;;;;;;;1.30;1.20;;;17.20;70.10;;;;;;4965864;28;95881;-56
2022/05/31 08:16:13;;;;;;;2.58;1.67;;;17.10;70.20;;;;;;4958165;28;95945;-54
2022/05/31 08:18:45;;;;;;;1.83;1.55;;;17.10;70.40;;;;;;4964786;28;95938;-54
2022/05/31 08:21:27;;;;;;;3.90;2.88;;;17.10;70.60;;;;;;4961168;28;95497;-55
2022/05/31 08:24:00;;;;;;;1.38;1.25;;;17.10;70.50;;;;;;4963969;28;95270;-56
2022/05/31 08:26:52;;;;;;;1.83;1.40;;;17.10;69.80;;;;;;4962525;28;95785;-54
2022/05/31 08:29:23;;;;;;;3.08;1.83;;;17.10;69.70;;;;;;4962834;28;96050;-56
2022/05/31 08:31:57;;;;;;;2.75;1.58;;;17.10;69.90;;;;;;4970724;28;96187;-53
2022/05/31 08:34:30;;;;;;;1.60;1.23;;;17.10;70.20;;;;;;4975160;28;96083;-55
2022/05/31 08:37:01;;;;;;;4.30;1.95;;;17.00;70.20;;;;;;4986648;28;95671;-57
2022/05/31 08:39:32;;;;;;;;;;;17.10;70.10;;;;;;4985531;28;97071;-57
2022/05/31 08:42:10;;;;;;;2.00;1.15;;;17.00;70.10;;;;;;4987869;28;95727;-58
2022/05/31 08:44:59;;;;;;;2.45;1.85;;;17.00;70.20;;;;;;4984930;28;95675;-56
2022/05/31 08:47:52;;;;;;;2.22;1.30;;;17.00;70.20;;;;;;4979969;28;98447;-57
2022/05/31 08:53:26;;;;;;;1.67;1.10;;;17.00;70.10;;;;;;4986444;28;95889;-57
2022/05/31 08:59:00;;;;;;;1.70;1.35;;;17.00;70.20;;;;;;4987968;28;95488;-57
2022/05/31 09:01:39;;;;;;;2.40;1.70;;;17.00;70.20;;;;;;4973985;28;96695;-57
2022/05/31 09:04:43;;;;;;;2.65;1.60;;;16.90;70.20;;;;;;4974754;28;95780;-54
2022/05/31 09:07:24;;;;;;;5.10;2.03;;;16.90;70.30;;;;;;4984943;28;96037;-57
2022/05/31 09:10:11;;;;;;;3.45;2.60;;;16.90;70.30;;;;;;4984975;28;95798;-56
2022/05/31 09:13:04;;;;;;;12.35;4.38;;;16.90;70.30;;;;;;4985436;28;95914;-56
2022/05/31 09:16:34;;;;;;;8.98;4.82;;;16.80;70.40;;;;;;4976944;28;96017;-56
2022/05/31 09:19:08;;;;;;;14.45;6.95;;;16.80;70.60;;;;;;4903651;28;97322;-56
2022/05/31 09:21:48;;;;;;;17.17;8.20;;;16.80;70.60;;;;;;4977614;28;96218;-57
2022/05/31 09:24:25;;;;;;;17.55;9.15;;;16.80;70.70;;;;;;4979306;28;96809;-56
2022/05/31 09:27:11;;;;;;;19.73;9.18;;;16.70;70.60;;;;;;4974421;28;95815;-55
2022/05/31 09:30:03;;;;;;;21.33;10.13;;;16.70;70.90;;;;;;4983035;28;95772;-57
2022/05/31 09:32:40;;;;;;;22.15;10.88;;;16.70;71.00;;;;;;4981695;28;96617;-56
2022/05/31 09:35:19;;;;;;;23.60;11.52;;;16.70;71.10;;;;;;4988232;28;96715;-56
2022/05/31 09:38:15;;;;;;;24.98;11.65;;;16.70;71.10;;;;;;4986910;28;96760;-57
2022/05/31 09:41:05;;;;;;;18.30;10.85;;;16.60;71.00;;;;;;4968415;28;95714;-54
2022/05/31 09:43:51;;;;;;;19.80;10.82;;;16.60;71.10;;;;;;4981129;28;95731;-55
2022/05/31 09:46:34;;;;;;;18.92;10.38;;;16.60;71.10;;;;;;4976979;28;96737;-56
2022/05/31 09:49:24;;;;;;;28.63;10.80;;;16.60;71.10;;;;;;4984520;28;96042;-57
2022/05/31 09:51:55;;;;;;;19.57;11.00;;;16.50;71.20;;;;;;4990144;28;95825;-55
2022/05/31 09:58:10;;;;;;;18.42;8.73;;;16.40;71.30;;;;;;4973943;28;95832;-56
2022/05/31 10:01:24;;;;;;;17.77;8.85;;;16.40;71.40;;;;;;4941411;28;95852;-57
2022/05/31 10:04:11;;;;;;;19.85;9.18;;;16.40;71.80;;;;;;4980602;28;96078;-57
2022/05/31 10:06:52;;;;;;;12.30;7.05;;;16.50;71.40;;;;;;4980301;28;95982;-55
2022/05/31 10:10:00;;;;;;;12.48;7.03;;;16.50;71.30;;;;;;4976811;28;96070;-57
2022/05/31 10:12:31;;;;;;;12.65;6.03;;;16.50;71.20;;;;;;4983237;28;95934;-56
2022/05/31 10:15:07;;;;;;;10.10;5.68;;;16.50;71.60;;;;;;4984491;28;95988;-58
2022/05/31 10:17:42;;;;;;;14.25;5.82;;;16.50;71.60;;;;;;4980709;28;95616;-60
2022/05/31 10:20:24;;;;;;;9.30;4.90;;;16.50;71.60;;;;;;4951513;28;96827;-61
2022/05/31 10:23:15;;;;;;;8.23;3.80;;;16.60;71.80;;;;;;4991346;28;95835;-60
2022/05/31 10:26:05;;;;;;;8.30;4.85;;;16.60;71.50;;;;;;4981629;28;96023;-58
2022/05/31 10:29:33;;;;;;;8.82;4.65;;;16.70;71.70;;;;;;4961594;28;95535;-58
2022/05/31 10:32:43;;;;;;;6.82;3.60;;;16.80;71.80;;;;;;4980485;28;98202;-57
2022/05/31 10:35:29;;;;;;;5.57;3.40;;;16.80;71.70;;;;;;4988055;28;95890;-52
2022/05/31 10:38:25;;;;;;;4.72;2.85;;;16.90;71.80;;;;;;4970900;28;95718;-52
2022/05/31 10:41:07;;;;;;;8.55;2.78;;;16.90;71.70;;;;;;4986314;28;95769;-53
2022/05/31 10:43:44;;;;;;;5.03;2.70;;;16.90;71.60;;;;;;4990183;28;96101;-53
2022/05/31 10:46:32;;;;;;;4.63;2.60;;;17.00;71.60;;;;;;4979454;28;95749;-54
2022/05/31 10:49:18;;;;;;;5.20;2.42;;;17.00;71.50;;;;;;4986546;28;95743;-57
2022/05/31 10:52:01;;;;;;;3.53;2.58;;;17.00;71.60;;;;;;4978303;28;95860;-59
2022/05/31 10:54:53;;;;;;;5.20;2.55;;;17.10;72.70;;;;;;4982128;28;96364;-60
2022/05/31 10:57:50;;;;;;;3.85;1.58;;;17.20;75.70;;;;;;4983672;28;95985;-60
2022/05/31 11:00:38;;;;;;;4.03;2.17;;;17.40;73.70;;;;;;4959133;28;96416;-60
2022/05/31 11:03:12;;;;;;;3.60;1.75;;;17.40;74.70;;;;;;4988908;28;95929;-56
2022/05/31 11:06:05;;;;;;;3.28;1.90;;;17.40;74.70;;;;;;4985595;28;96582;-59
2022/05/31 11:11:55;;;;;;;3.60;1.70;;;17.40;74.30;;;;;;4978026;28;95589;-62
2022/05/31 11:15:00;;;;;;;2.75;1.80;;;17.40;74.10;;;;;;4981955;28;96800;-58
2022/05/31 11:17:46;;;;;;;2.95;1.60;;;17.40;74.00;;;;;;4980138;28;95869;-60
2022/05/31 11:20:27;;;;;;;4.13;1.70;;;17.40;73.90;;;;;;4968550;28;96259;-60
2022/05/31 11:23:22;;;;;;;4.55;1.90;;;17.40;73.90;;;;;;4985530;28;95810;-60
2022/05/31 11:26:11;;;;;;;4.35;1.50;;;17.40;73.80;;;;;;4983819;28;98124;-60
2022/05/31 11:29:38;;;;;;;4.40;1.60;;;17.40;73.60;;;;;;4981783;28;95922;-61
2022/05/31 11:32:35;;;;;;;2.72;1.83;;;17.40;73.30;;;;;;4973043;28;95956;-61
2022/05/31 11:35:26;;;;;;;2.55;1.50;;;17.30;73.00;;;;;;4981575;28;95865;-61
2022/05/31 11:38:08;;;;;;;2.95;1.52;;;17.40;73.00;;;;;;4982651;28;95831;-61
2022/05/31 11:40:43;;;;;;;2.70;1.70;;;17.30;72.90;;;;;;4983681;28;95902;-61
2022/05/31 11:43:37;;;;;;;1.92;1.23;;;17.30;72.60;;;;;;4983925;28;97680;-59
2022/05/31 11:46:38;;;;;;;3.53;1.55;;;17.30;72.40;;;;;;4976572;28;96056;-59
2022/05/31 11:49:34;;;;;;;2.40;1.55;;;17.30;72.20;;;;;;4987514;28;97878;-59
2022/05/31 11:52:08;;;;;;;2.97;1.70;;;17.20;72.10;;;;;;4983578;28;96177;-61
2022/05/31 11:58:01;;;;;;;2.45;1.73;;;17.30;71.90;;;;;;4975141;28;95811;-61
2022/05/31 12:00:46;;;;;;;3.20;2.25;;;17.30;71.40;;;;;;4973203;28;95873;-60
2022/05/31 12:03:27;;;;;;;3.75;2.08;;;17.20;71.10;;;;;;4981656;28;96873;-59
2022/05/31 12:06:10;;;;;;;2.25;1.58;;;17.10;71.00;;;;;;4982361;28;95743;-59
2022/05/31 12:08:54;;;;;;;2.75;1.77;;;17.00;71.00;;;;;;4981744;28;95840;-59
2022/05/31 12:11:44;;;;;;;2.53;1.98;;;16.90;70.90;;;;;;4983086;28;95701;-59
2022/05/31 12:14:16;;;;;;;2.70;2.08;;;16.90;70.90;;;;;;4979791;28;96099;-59
2022/05/31 12:16:48;;;;;;;2.10;1.88;;;16.80;70.70;;;;;;4978607;28;95970;-59
2022/05/31 12:19:25;;;;;;;2.55;1.80;;;16.80;70.70;;;;;;4980779;28;95823;-59
2022/05/31 12:22:21;;;;;;;2.97;2.33;;;16.70;70.60;;;;;;4984315;28;95501;-57
2022/05/31 12:25:30;;;;;;;4.20;2.13;;;16.70;70.70;;;;;;4982642;28;95904;-57
2022/05/31 12:28:37;;;;;;;2.95;2.10;;;16.60;70.60;;;;;;4958653;28;97015;-59
2022/05/31 12:31:14;;;;;;;4.90;2.85;;;16.70;70.60;;;;;;4949055;28;96227;-58
2022/05/31 12:33:47;;;;;;;4.15;2.70;;;16.50;70.50;;;;;;4987235;28;95725;-59
2022/05/31 12:36:21;;;;;;;2.25;1.92;;;16.50;70.50;;;;;;4985637;28;95919;-58
2022/05/31 12:39:27;;;;;;;2.50;1.98;;;16.50;70.50;;;;;;4982773;28;95982;-59
2022/05/31 12:42:19;;;;;;;3.53;2.38;;;16.40;70.40;;;;;;4984053;28;95333;-61
2022/05/31 12:44:50;;;;;;;2.60;2.30;;;16.40;70.50;;;;;;4967436;28;95981;-58
2022/05/31 12:47:24;;;;;;;3.97;2.45;;;16.40;70.30;;;;;;4959830;28;96123;-60
2022/05/31 12:50:06;;;;;;;2.60;2.17;;;16.30;70.20;;;;;;4964942;28;95439;-59
2022/05/31 12:53:44;;;;;;;3.17;2.83;;;16.30;70.10;;;;;;4964838;28;95831;-58
2022/05/31 12:55:58;;;;;;;3.42;2.67;;;16.20;70.10;;;;;;4957127;28;96484;-60
2022/05/31 12:58:45;;;;;;;3.45;2.05;;;16.20;69.80;;;;;;4971162;28;96907;-56
2022/05/31 13:01:23;;;;;;;5.00;2.35;;;16.20;69.80;;;;;;4977602;28;95320;-57
2022/05/31 13:03:58;;;;;;;2.30;2.10;;;16.20;70.20;;;;;;4978652;28;94931;-59
2022/05/31 13:06:38;;;;;;;2.63;2.17;;;16.30;70.90;;;;;;4977279;28;95765;-55
2022/05/31 13:09:32;;;;;;;3.35;2.30;;;16.40;70.90;;;;;;4977603;28;96385;-57
2022/05/31 13:21:11;;;;;;;2.25;1.88;;;16.30;70.70;;;;;;4976968;28;96403;-58
2022/05/31 13:24:13;;;;;;;2.35;2.03;;;16.30;70.70;;;;;;4976942;28;95857;-58
2022/05/31 13:26:47;;;;;;;1.67;1.52;;;16.30;70.80;;;;;;4977244;28;95014;-58
2022/05/31 13:29:23;;;;;;;2.63;1.75;;;16.20;70.80;;;;;;4977958;28;95207;-57
2022/05/31 13:32:01;;;;;;;2.78;1.60;;;16.20;70.80;;;;;;4988821;28;96354;-57
2022/05/31 13:34:40;;;;;;;9.68;2.35;;;16.20;70.90;;;;;;4995563;28;96149;-59
2022/05/31 13:37:22;;;;;;;2.28;1.98;;;16.20;70.80;;;;;;4997215;28;94913;-59
2022/05/31 13:39:53;;;;;;;3.17;1.95;;;16.20;70.70;;;;;;4997289;28;95392;-57
2022/05/31 13:42:40;;;;;;;3.88;1.70;;;16.20;70.70;;;;;;4996622;28;96447;-60
2022/05/31 13:45:17;;;;;;;5.18;1.85;;;16.20;70.70;;;;;;4997086;28;95229;-61
2022/05/31 13:47:55;;;;;;;2.83;1.90;;;16.20;70.60;;;;;;4997055;28;94851;-58
2022/05/31 13:50:40;;;;;;;3.30;1.52;;;16.20;70.60;;;;;;4998700;28;95079;-60
2022/05/31 13:53:13;;;;;;;3.00;1.83;;;16.20;70.70;;;;;;4998524;28;96727;-55
2022/05/31 13:55:46;;;;;;;4.07;1.65;;;16.20;70.60;;;;;;4999332;28;96721;-57
2022/05/31 13:58:22;;;;;;;3.00;1.63;;;16.20;70.90;;;;;;4998700;28;94932;-46
2022/05/31 14:00:54;;;;;;;2.58;1.67;;;16.20;71.00;;;;;;4998378;28;95338;-48
2022/05/31 14:03:40;;;;;;;2.15;1.88;;;16.20;69.50;;;;;;4998880;28;96447;-50
2022/05/31 14:06:17;;;;;;;2.60;1.67;;;16.30;71.30;;;;;;4998418;28;95429;-49
2022/05/31 14:08:56;;;;;;;1.45;1.23;;;16.30;71.60;;;;;;4998557;28;94975;-45
2022/05/31 14:11:49;;;;;;;1.65;1.55;;;16.30;71.60;;;;;;4999220;28;95334;-50
2022/05/31 14:14:29;;;;;;;1.98;1.20;;;16.40;71.70;;;;;;4998768;28;96413;-48
2022/05/31 14:17:03;;;;;;;1.65;1.55;;;16.50;71.90;;;;;;4998475;28;96165;-53
2022/05/31 14:19:37;;;;;;;1.88;1.40;;;16.60;71.70;;;;;;5002899;28;94925;-48
2022/05/31 14:22:24;;;;;;;2.55;1.40;;;16.60;71.60;;;;;;5002616;28;95314;-47
2022/05/31 14:24:58;;;;;;;1.55;1.00;;;16.70;71.60;;;;;;5002578;28;96614;-51
2022/05/31 14:27:32;;;;;;;2.55;1.35;;;16.70;71.60;;;;;;5001872;28;95130;-50
2022/05/31 14:30:13;;;;;;;1.98;1.10;;;16.80;71.60;;;;;;5001503;28;94912;-52
2022/05/31 14:32:49;;;;;;;;;;;16.90;71.70;;;;;;5002253;28;95297;-48
2022/05/31 14:35:49;;;;;;;1.13;0.98;;;16.90;71.60;;;;;;5003778;28;95204;-47
2022/05/31 14:38:31;;;;;;;1.02;0.93;;;16.90;71.60;;;;;;5001883;28;95892;-56
2022/05/31 14:41:11;;;;;;;2.53;1.23;;;17.00;71.60;;;;;;5002850;28;94933;-47